Time;durP1;ratioP1;P1;durP2;ratioP2;P2;SDS_P1;SDS_P2;PMS_P1;PMS_P2;Temp;Humidity;BMP_temperature;BMP_pressure;BME280_temperature;BME280_humidity;BME280_pressure;Samples;Min_cycle;Max_cycle;Signal;HPM_P1;HPM_P2
2022/09/19 00:00:22;;;;;;;;;;;;;;;;;;5072000;28;19920;-58
2022/09/19 00:02:47;;;;;;;;;;;;;;;;;;5076292;28;19963;-58
2022/09/19 00:05:12;;;;;;;;;;;;;;;;;;5071225;28;20357;-58
2022/09/19 00:07:37;;;;;;;;;;;;;;;;;;5077683;28;19917;-58
2022/09/19 00:10:02;;;;;;;;;;;;;;;;;;5071238;28;19962;-58
2022/09/19 00:12:28;;;;;;;;;;;;;;;;;;5069987;28;19923;-58
2022/09/19 00:14:55;;;;;;;;;;;;;;;;;;5078675;28;19916;-58
2022/09/19 00:17:20;;;;;;;;;;;;;;;;;;5072793;28;19972;-58
2022/09/19 00:19:45;;;;;;;;;;;;;;;;;;5075993;28;19916;-58
2022/09/19 00:22:10;;;;;;;;;;;;;;;;;;5071014;28;20153;-58
2022/09/19 00:24:45;;;;;;;;;;;;;;;;;;5072566;28;19927;-58
2022/09/19 00:27:10;;;;;;;;;;;;;;;;;;5077286;28;19997;-58
2022/09/19 00:29:35;;;;;;;;;;;;;;;;;;5056559;28;20010;-58
2022/09/19 00:32:00;;;;;;;;;;;;;;;;;;5071060;28;20049;-58
2022/09/19 00:34:26;;;;;;;;;;;;;;;;;;5078759;28;19962;-58
2022/09/19 00:36:51;;;;;;;;;;;;;;;;;;5054702;28;20084;-57
2022/09/19 00:39:16;;;;;;;;;;;;;;;;;;5076234;28;19920;-58
2022/09/19 00:41:42;;;;;;;;;;;;;;;;;;5067967;28;20399;-58
2022/09/19 00:44:07;;;;;;;;;;;;;;;;;;5053469;28;19924;-58
2022/09/19 00:46:33;;;;;;;;;;;;;;;;;;5077268;28;20006;-58
2022/09/19 00:48:59;;;;;;;;;;;;;;;;;;5067389;28;20048;-58
2022/09/19 00:51:27;;;;;;;;;;;;;;;;;;5077373;28;20005;-59
2022/09/19 00:53:52;;;;;;;;;;;;;;;;;;5053770;28;20349;-59
2022/09/19 00:56:18;;;;;;;;;;;;;;;;;;5071889;28;19923;-58
2022/09/19 00:58:44;;;;;;;;;;;;;;;;;;5080351;28;19977;-58
2022/09/19 01:01:09;;;;;;;;;;;;;;;;;;5071751;28;20107;-58
2022/09/19 01:03:34;;;;;;;;;;;;;;;;;;5077070;28;20416;-58
2022/09/19 01:06:00;;;;;;;;;;;;;;;;;;5054409;28;19923;-59
2022/09/19 01:08:25;;;;;;;;;;;;;;;;;;5072712;28;19923;-59
2022/09/19 01:10:50;;;;;;;;;;;;;;;;;;5062434;28;20333;-58
2022/09/19 01:13:16;;;;;;;;;;;;;;;;;;5053057;28;19985;-58
2022/09/19 01:15:41;;;;;;;;;;;;;;;;;;5061613;28;19916;-58
2022/09/19 01:18:06;;;;;;;;;;;;;;;;;;5068565;28;20284;-58
2022/09/19 01:20:31;;;;;;;;;;;;;;;;;;5071858;28;19916;-59
2022/09/19 01:22:57;;;;;;;;;;;;;;;;;;5063391;28;19989;-59
2022/09/19 01:25:22;;;;;;;;;;;;;;;;;;5054074;28;20019;-58
2022/09/19 01:27:47;;;;;;;;;;;;;;;;;;5058767;28;19920;-58
2022/09/19 01:30:12;;;;;;;;;;;;;;;;;;5072088;28;19920;-59
2022/09/19 01:32:42;;;;;;;;;;;;;;;;;;5069135;28;19920;-59
2022/09/19 01:35:07;;;;;;;;;;;;;;;;;;5060002;28;19920;-59
2022/09/19 01:37:32;;;;;;;;;;;;;;;;;;5055903;28;19966;-58
2022/09/19 01:39:57;;;;;;;;;;;;;;;;;;5061107;28;19916;-58
2022/09/19 01:42:22;;;;;;;;;;;;;;;;;;5052843;28;19932;-59
2022/09/19 01:44:48;;;;;;;;;;;;;;;;;;5066873;28;19935;-58
2022/09/19 01:47:14;;;;;;;;;;;;;;;;;;5074490;28;19962;-58
2022/09/19 01:49:39;;;;;;;;;;;;;;;;;;5073003;28;19950;-57
2022/09/19 01:52:04;;;;;;;;;;;;;;;;;;5063731;28;19927;-58
2022/09/19 01:54:30;;;;;;;;;;;;;;;;;;5071837;28;19935;-57
2022/09/19 01:56:58;;;;;;;;;;;;;;;;;;5072248;28;20825;-60
2022/09/19 01:59:24;;;;;;;;;;;;;;;;;;5083644;28;20395;-60
2022/09/19 02:01:50;;;;;;;;;;;;;;;;;;5069310;28;20070;-58
2022/09/19 02:04:15;;;;;;;;;;;;;;;;;;5062988;28;19974;-58
2022/09/19 02:06:43;;;;;;;;;;;;;;;;;;5072672;28;19916;-58
2022/09/19 02:09:09;;;;;;;;;;;;;;;;;;5058321;28;20338;-58
2022/09/19 02:11:46;;;;;;;;;;;;;;;;;;5084716;28;20018;-58
2022/09/19 02:14:16;;;;;;;;;;;;;;;;;;5073044;28;19920;-58
2022/09/19 02:16:45;;;;;;;;;;;;;;;;;;5081717;28;20382;-57
2022/09/19 02:19:12;;;;;;;;;;;;;;;;;;5057385;28;19916;-58
2022/09/19 02:21:38;;;;;;;;;;;;;;;;;;5070025;28;19916;-58
2022/09/19 02:24:06;;;;;;;;;;;;;;;;;;5063033;28;19920;-57
2022/09/19 02:26:31;;;;;;;;;;;;;;;;;;5073425;28;20061;-58
2022/09/19 02:28:57;;;;;;;;;;;;;;;;;;5056505;28;19915;-58
2022/09/19 02:31:26;;;;;;;;;;;;;;;;;;5082657;28;19916;-58
2022/09/19 02:33:52;;;;;;;;;;;;;;;;;;5073214;28;19923;-58
2022/09/19 02:36:18;;;;;;;;;;;;;;;;;;5083542;28;19984;-58
2022/09/19 02:38:43;;;;;;;;;;;;;;;;;;5058669;28;19916;-58
2022/09/19 02:41:11;;;;;;;;;;;;;;;;;;5055956;28;19932;-58
2022/09/19 02:43:38;;;;;;;;;;;;;;;;;;5062493;28;20339;-58
2022/09/19 02:46:04;;;;;;;;;;;;;;;;;;5070825;28;19931;-58
2022/09/19 02:48:29;;;;;;;;;;;;;;;;;;5063022;28;19916;-58
2022/09/19 02:50:59;;;;;;;;;;;;;;;;;;5071721;28;20337;-58
2022/09/19 02:53:26;;;;;;;;;;;;;;;;;;5056391;28;20474;-58
2022/09/19 02:55:56;;;;;;;;;;;;;;;;;;5079855;28;20256;-58
2022/09/19 02:58:22;;;;;;;;;;;;;;;;;;5070644;28;19916;-58
2022/09/19 03:00:50;;;;;;;;;;;;;;;;;;5058779;28;19923;-58
2022/09/19 03:05:59;;;;;;;;;;;;;;;;;;5071725;28;20147;-58
2022/09/19 03:08:25;;;;;;;;;;;;;;;;;;5077011;28;19939;-58
2022/09/19 03:10:52;;;;;;;;;;;;;;;;;;5070936;28;20864;-59
2022/09/19 03:13:28;;;;;;;;;;;;;;;;;;5055199;28;19917;-58
2022/09/19 03:15:56;;;;;;;;;;;;;;;;;;5076503;28;19924;-58
2022/09/19 03:18:29;;;;;;;;;;;;;;;;;;5054780;28;19923;-57
2022/09/19 03:20:54;;;;;;;;;;;;;;;;;;5077508;28;19921;-58
2022/09/19 03:23:20;;;;;;;;;;;;;;;;;;5074089;28;20381;-58
2022/09/19 03:25:45;;;;;;;;;;;;;;;;;;5054471;28;20342;-57
2022/09/19 03:28:11;;;;;;;;;;;;;;;;;;5077747;28;19920;-58
2022/09/19 03:30:36;;;;;;;;;;;;;;;;;;5056878;28;19916;-59
2022/09/19 03:33:01;;;;;;;;;;;;;;;;;;5077746;28;19955;-58
2022/09/19 03:35:27;;;;;;;;;;;;;;;;;;5071402;28;20010;-58
2022/09/19 03:37:52;;;;;;;;;;;;;;;;;;5053638;28;19916;-60
2022/09/19 03:40:22;;;;;;;;;;;;;;;;;;5080463;28;20810;-58
2022/09/19 03:42:52;;;;;;;;;;;;;;;;;;5071541;28;19920;-58
2022/09/19 03:45:18;;;;;;;;;;;;;;;;;;5061049;28;20010;-59
2022/09/19 03:47:43;;;;;;;;;;;;;;;;;;5072488;28;19946;-58
2022/09/19 03:50:08;;;;;;;;;;;;;;;;;;5076026;28;19920;-59
2022/09/19 03:52:47;;;;;;;;;;;;;;;;;;5062398;28;19920;-59
2022/09/19 03:55:12;;;;;;;;;;;;;;;;;;5069314;28;20584;-59
2022/09/19 03:57:39;;;;;;;;;;;;;;;;;;5056966;28;19916;-60
2022/09/19 04:00:04;;;;;;;;;;;;;;;;;;5075018;28;19958;-59
2022/09/19 04:02:42;;;;;;;;;;;;;;;;;;5072237;28;20058;-59
2022/09/19 04:05:07;;;;;;;;;;;;;;;;;;5059998;28;20502;-59
2022/09/19 04:07:33;;;;;;;;;;;;;;;;;;5055882;28;19927;-59
2022/09/19 04:09:58;;;;;;;;;;;;;;;;;;5058620;28;19928;-59
2022/09/19 04:12:24;;;;;;;;;;;;;;;;;;5073757;28;19916;-59
2022/09/19 04:14:50;;;;;;;;;;;;;;;;;;5073890;28;20242;-59
2022/09/19 04:17:15;;;;;;;;;;;;;;;;;;5077840;28;19971;-59
2022/09/19 04:19:42;;;;;;;;;;;;;;;;;;5071773;28;19984;-59
2022/09/19 04:22:27;;;;;;;;;;;;;;;;;;5051349;28;20018;-59
2022/09/19 04:25:34;;;;;;;;;;;;;;;;;;5061032;28;19931;-59
2022/09/19 04:28:16;;;;;;;;;;;;;;;;;;5074415;28;19959;-59
2022/09/19 04:30:41;;;;;;;;;;;;;;;;;;5070458;28;19916;-59
2022/09/19 04:33:07;;;;;;;;;;;;;;;;;;5073348;28;19916;-59
2022/09/19 04:35:34;;;;;;;;;;;;;;;;;;5069612;28;19912;-58
2022/09/19 04:38:00;;;;;;;;;;;;;;;;;;5055484;28;20002;-60
2022/09/19 04:40:28;;;;;;;;;;;;;;;;;;5063898;28;20056;-59
2022/09/19 04:42:53;;;;;;;;;;;;;;;;;;5073287;28;19923;-59
2022/09/19 04:45:20;;;;;;;;;;;;;;;;;;5077694;28;19938;-59
2022/09/19 04:48:12;;;;;;;;;;;;;;;;;;5052290;28;19950;-60
2022/09/19 04:50:37;;;;;;;;;;;;;;;;;;5053857;28;19916;-60
2022/09/19 04:53:02;;;;;;;;;;;;;;;;;;5063645;28;19994;-60
2022/09/19 04:55:28;;;;;;;;;;;;;;;;;;5054159;28;19916;-60
2022/09/19 04:57:54;;;;;;;;;;;;;;;;;;5075475;28;19916;-60
2022/09/19 05:00:36;;;;;;;;;;;;;;;;;;5071740;28;19916;-59
2022/09/19 05:03:04;;;;;;;;;;;;;;;;;;5035145;28;19962;-60
2022/09/19 05:05:30;;;;;;;;;;;;;;;;;;5058003;28;21046;-60
2022/09/19 05:07:55;;;;;;;;;;;;;;;;;;5052992;28;20368;-59
2022/09/19 05:10:21;;;;;;;;;;;;;;;;;;5067350;28;19920;-59
2022/09/19 05:12:46;;;;;;;;;;;;;;;;;;5056596;28;19968;-59
2022/09/19 05:15:12;;;;;;;;;;;;;;;;;;5063279;28;19920;-60
2022/09/19 05:17:37;;;;;;;;;;;;;;;;;;5057769;28;20432;-60
2022/09/19 05:20:03;;;;;;;;;;;;;;;;;;5072605;28;19916;-60
2022/09/19 05:22:29;;;;;;;;;;;;;;;;;;5056496;28;20360;-60
2022/09/19 05:24:55;;;;;;;;;;;;;;;;;;5077605;28;19955;-60
2022/09/19 05:27:20;;;;;;;;;;;;;;;;;;5040101;28;20668;-60
2022/09/19 05:29:45;;;;;;;;;;;;;;;;;;5061412;28;20039;-60
2022/09/19 05:32:11;;;;;;;;;;;;;;;;;;5071882;28;19922;-61
2022/09/19 05:34:42;;;;;;;;;;;;;;;;;;5059369;28;19938;-61
2022/09/19 05:37:46;;;;;;;;;;;;;;;;;;5068721;28;19985;-60
2022/09/19 05:40:30;;;;;;;;;;;;;;;;;;5073389;28;20007;-60
2022/09/19 05:43:10;;;;;;;;;;;;;;;;;;5071271;28;19970;-58
2022/09/19 05:45:37;;;;;;;;;;;;;;;;;;5078849;28;20011;-60
2022/09/19 05:48:04;;;;;;;;;;;;;;;;;;5059798;28;19960;-61
2022/09/19 05:50:29;;;;;;;;;;;;;;;;;;5066207;28;20352;-58
2022/09/19 05:55:40;;;;;;;;;;;;;;;;;;5057288;28;19916;-59
2022/09/19 05:58:24;;;;;;;;;;;;;;;;;;5075716;28;20731;-59
2022/09/19 06:00:49;;;;;;;;;;;;;;;;;;5055426;28;19916;-59
2022/09/19 06:03:16;;;;;;;;;;;;;;;;;;5056041;28;19931;-58
2022/09/19 06:05:41;;;;;;;;;;;;;;;;;;5074317;28;19966;-58
2022/09/19 06:08:07;;;;;;;;;;;;;;;;;;5053510;28;19965;-58
2022/09/19 06:10:32;;;;;;;;;;;;;;;;;;5063532;28;20032;-59
2022/09/19 06:12:57;;;;;;;;;;;;;;;;;;5069268;28;19962;-59
2022/09/19 06:15:22;;;;;;;;;;;;;;;;;;5055743;28;20009;-59
2022/09/19 06:17:49;;;;;;;;;;;;;;;;;;5060359;28;20372;-59
2022/09/19 06:20:17;;;;;;;;;;;;;;;;;;5056885;28;20003;-59
2022/09/19 06:22:45;;;;;;;;;;;;;;;;;;5054137;28;19992;-59
2022/09/19 06:25:14;;;;;;;;;;;;;;;;;;5078247;28;20331;-60
2022/09/19 06:27:39;;;;;;;;;;;;;;;;;;5069789;28;20289;-58
2022/09/19 06:30:05;;;;;;;;;;;;;;;;;;5067331;28;19916;-60
2022/09/19 06:33:09;;;;;;;;;;;;;;;;;;5070726;28;19920;-60
2022/09/19 06:35:41;;;;;;;;;;;;;;;;;;5077426;28;19947;-59
2022/09/19 06:38:07;;;;;;;;;;;;;;;;;;5080796;28;20030;-59
2022/09/19 06:40:36;;;;;;;;;;;;;;;;;;5061950;28;19930;-59
2022/09/19 06:43:30;;;;;;;;;;;;;;;;;;5064543;28;19972;-59
2022/09/19 06:46:37;;;;;;;;;;;;;;;;;;5059899;28;19978;-59
2022/09/19 06:49:28;;;;;;;;;;;;;;;;;;5063223;28;19916;-60
2022/09/19 06:52:04;;;;;;;;;;;;;;;;;;5075012;28;19920;-60
2022/09/19 06:54:29;;;;;;;;;;;;;;;;;;5081520;28;19916;-60
2022/09/19 06:56:54;;;;;;;;;;;;;;;;;;5079379;28;20073;-60
2022/09/19 06:59:20;;;;;;;;;;;;;;;;;;5050250;28;20339;-60
2022/09/19 07:01:45;;;;;;;;;;;;;;;;;;5059851;28;19916;-60
2022/09/19 07:04:10;;;;;;;;;;;;;;;;;;5059302;28;20241;-60
2022/09/19 07:06:57;;;;;;;;;;;;;;;;;;5061927;28;19974;-60
2022/09/19 07:09:23;;;;;;;;;;;;;;;;;;5057184;28;19916;-60
2022/09/19 07:11:49;;;;;;;;;;;;;;;;;;5049204;28;19923;-60
2022/09/19 07:14:14;;;;;;;;;;;;;;;;;;5062706;28;19924;-60
2022/09/19 07:16:39;;;;;;;;;;;;;;;;;;5060899;28;20387;-60
2022/09/19 07:19:04;;;;;;;;;;;;;;;;;;5059212;28;20007;-60
2022/09/19 07:21:40;;;;;;;;;;;;;;;;;;5062585;28;19916;-60
2022/09/19 07:24:11;;;;;;;;;;;;;;;;;;5074567;28;19927;-59
2022/09/19 07:26:54;;;;;;;;;;;;;;;;;;5064550;28;19924;-60
2022/09/19 07:29:20;;;;;;;;;;;;;;;;;;5072903;28;20229;-60
2022/09/19 07:31:46;;;;;;;;;;;;;;;;;;5061078;28;20403;-60
2022/09/19 07:34:11;;;;;;;;;;;;;;;;;;5076171;28;19920;-60
2022/09/19 07:36:44;;;;;;;;;;;;;;;;;;5057646;28;19916;-60
2022/09/19 07:39:10;;;;;;;;;;;;;;;;;;5062495;28;19974;-59
2022/09/19 07:42:04;;;;;;;;;;;;;;;;;;5044104;28;20389;-60
2022/09/19 07:44:47;;;;;;;;;;;;;;;;;;5061782;28;19928;-60
2022/09/19 07:47:48;;;;;;;;;;;;;;;;;;5043784;28;19916;-59
2022/09/19 07:50:30;;;;;;;;;;;;;;;;;;5060425;28;19920;-59
2022/09/19 07:52:58;;;;;;;;;;;;;;;;;;5064579;28;19923;-60
2022/09/19 07:55:24;;;;;;;;;;;;;;;;;;5060183;28;20276;-60
2022/09/19 07:57:50;;;;;;;;;;;;;;;;;;5042199;28;19939;-60
2022/09/19 08:00:15;;;;;;;;;;;;;;;;;;5059107;28;19916;-60
2022/09/19 08:02:49;;;;;;;;;;;;;;;;;;5079428;28;20654;-61
2022/09/19 08:05:14;;;;;;;;;;;;;;;;;;5073574;28;19912;-60
2022/09/19 08:07:47;;;;;;;;;;;;;;;;;;5115600;27;20003;-60
2022/09/19 08:10:13;;;;;;;;;;;;;;;;;;5114227;28;20011;-61
2022/09/19 08:12:38;;;;;;;;;;;;;;;;;;5114175;27;20574;-61
2022/09/19 08:15:07;;;;;;;;;;;;;;;;;;5111842;28;19922;-61
2022/09/19 08:17:33;;;;;;;;;;;;;;;;;;5117383;27;20373;-61
2022/09/19 08:19:58;;;;;;;;;;;;;;;;;;5113879;27;19927;-61
2022/09/19 08:22:24;;;;;;;;;;;;;;;;;;5109992;27;19920;-61
2022/09/19 08:24:55;;;;;;;;;;;;;;;;;;5111337;28;19916;-61
2022/09/19 08:27:21;;;;;;;;;;;;;;;;;;5112017;28;19916;-61
2022/09/19 08:29:48;;;;;;;;;;;;;;;;;;5122655;27;20040;-59
2022/09/19 08:32:14;;;;;;;;;;;;;;;;;;5110544;28;19941;-60
2022/09/19 08:34:40;;;;;;;;;;;;;;;;;;5115015;27;19916;-60
2022/09/19 08:37:06;;;;;;;;;;;;;;;;;;5108331;28;20657;-59
2022/09/19 08:39:34;;;;;;;;;;;;;;;;;;5115747;28;19962;-59
2022/09/19 08:42:00;;;;;;;;;;;;;;;;;;5111974;27;20278;-60
2022/09/19 08:44:26;;;;;;;;;;;;;;;;;;5111936;28;20380;-60
2022/09/19 08:46:51;;;;;;;;;;;;;;;;;;5111863;27;19927;-59
2022/09/19 08:49:17;;;;;;;;;;;;;;;;;;5108430;27;19964;-60
2022/09/19 08:51:42;;;;;;;;;;;;;;;;;;5114554;27;19924;-60
2022/09/19 08:54:07;;;;;;;;;;;;;;;;;;5115017;27;19916;-60
2022/09/19 08:56:33;;;;;;;;;;;;;;;;;;5111565;28;19916;-59
2022/09/19 08:58:58;;;;;;;;;;;;;;;;;;5110882;28;19920;-59
2022/09/19 09:01:38;;;;;;;;;;;;;;;;;;5113533;28;19969;-59
2022/09/19 09:04:22;;;;;;;;;;;;;;;;;;5105999;28;19927;-61
2022/09/19 09:06:51;;;;;;;;;;;;;;;;;;5106481;28;19985;-62
2022/09/19 09:09:16;;;;;;;;;;;;;;;;;;5111254;28;19920;-60
2022/09/19 09:11:49;;;;;;;;;;;;;;;;;;5115980;27;20273;-58
2022/09/19 09:14:14;;;;;;;;;;;;;;;;;;5104471;27;20372;-59
2022/09/19 09:16:40;;;;;;;;;;;;;;;;;;5115634;28;19965;-60
2022/09/19 09:19:05;;;;;;;;;;;;;;;;;;5096070;27;19916;-60
2022/09/19 09:21:30;;;;;;;;;;;;;;;;;;5100309;27;20295;-59
2022/09/19 09:23:56;;;;;;;;;;;;;;;;;;5091824;28;19966;-60
2022/09/19 09:26:44;;;;;;;;;;;;;;;;;;5094200;28;19920;-60
2022/09/19 09:29:11;;;;;;;;;;;;;;;;;;5098667;28;20023;-61
2022/09/19 09:31:49;;;;;;;;;;;;;;;;;;5093286;28;19920;-60
2022/09/19 09:34:31;;;;;;;;;;;;;;;;;;5095694;28;19934;-60
2022/09/19 09:36:56;;;;;;;;;;;;;;;;;;5094929;27;19919;-60
2022/09/19 09:39:25;;;;;;;;;;;;;;;;;;5099671;28;19955;-61
2022/09/19 09:41:52;;;;;;;;;;;;;;;;;;5099665;28;19955;-60
2022/09/19 09:44:20;;;;;;;;;;;;;;;;;;5094404;28;19916;-59
2022/09/19 09:46:48;;;;;;;;;;;;;;;;;;5099556;27;20006;-59
2022/09/19 09:49:14;;;;;;;;;;;;;;;;;;5096593;28;20043;-59
2022/09/19 09:51:39;;;;;;;;;;;;;;;;;;5093298;27;19920;-60
2022/09/19 09:54:06;;;;;;;;;;;;;;;;;;5096365;28;19916;-60
2022/09/19 09:56:32;;;;;;;;;;;;;;;;;;5093726;28;19966;-61
2022/09/19 09:58:58;;;;;;;;;;;;;;;;;;5093836;27;19920;-60
2022/09/19 10:04:07;;;;;;;;;;;;;;;;;;5095449;27;20448;-60
2022/09/19 10:06:38;;;;;;;;;;;;;;;;;;5093290;28;20011;-60
2022/09/19 10:09:03;;;;;;;;;;;;;;;;;;5094634;28;20312;-61
2022/09/19 10:11:28;;;;;;;;;;;;;;;;;;5094156;28;19916;-61
2022/09/19 10:14:04;;;;;;;;;;;;;;;;;;5099416;27;19961;-60
2022/09/19 10:16:32;;;;;;;;;;;;;;;;;;5096471;28;19989;-61
2022/09/19 10:18:57;;;;;;;;;;;;;;;;;;5097799;28;20009;-62
2022/09/19 10:21:23;;;;;;;;;;;;;;;;;;5096395;28;20626;-62
2022/09/19 10:23:52;;;;;;;;;;;;;;;;;;5095707;28;20717;-61
2022/09/19 10:26:22;;;;;;;;;;;;;;;;;;5092577;27;20368;-61
2022/09/19 10:28:53;;;;;;;;;;;;;;;;;;5097168;28;19924;-61
2022/09/19 10:31:38;;;;;;;;;;;;;;;;;;5091750;28;20041;-61
2022/09/19 10:34:24;;;;;;;;;;;;;;;;;;5099091;27;20322;-61
2022/09/19 10:36:49;;;;;;;;;;;;;;;;;;5096029;28;19973;-61
2022/09/19 10:39:14;;;;;;;;;;;;;;;;;;5094543;28;19916;-60
2022/09/19 10:41:43;;;;;;;;;;;;;;;;;;5114980;27;20577;-61
2022/09/19 10:44:09;;;;;;;;;;;;;;;;;;5095486;28;19927;-61
2022/09/19 10:46:35;;;;;;;;;;;;;;;;;;5099079;28;19916;-61
2022/09/19 10:49:26;;;;;;;;;;;;;;;;;;5096364;27;19927;-61
2022/09/19 10:51:55;;;;;;;;;;;;;;;;;;5093768;28;19916;-61
2022/09/19 10:54:21;;;;;;;;;;;;;;;;;;5095109;27;19966;-61
2022/09/19 10:56:46;;;;;;;;;;;;;;;;;;5098804;28;20010;-61
2022/09/19 10:59:11;;;;;;;;;;;;;;;;;;5100382;27;19926;-61
2022/09/19 11:01:41;;;;;;;;;;;;;;;;;;5097390;28;20360;-61
2022/09/19 11:04:08;;;;;;;;;;;;;;;;;;5098256;28;20543;-61
2022/09/19 11:06:33;;;;;;;;;;;;;;;;;;5093500;28;19916;-61
2022/09/19 11:08:59;;;;;;;;;;;;;;;;;;5099061;27;19924;-61
2022/09/19 11:11:45;;;;;;;;;;;;;;;;;;5089667;28;19912;-61
2022/09/19 11:14:12;;;;;;;;;;;;;;;;;;5088986;28;20217;-61
2022/09/19 11:16:38;;;;;;;;;;;;;;;;;;5096371;27;19969;-62
2022/09/19 11:19:05;;;;;;;;;;;;;;;;;;5096473;28;19916;-61
2022/09/19 11:21:32;;;;;;;;;;;;;;;;;;5093246;28;19946;-62
2022/09/19 11:23:58;;;;;;;;;;;;;;;;;;5094310;28;19982;-62
2022/09/19 11:26:24;;;;;;;;;;;;;;;;;;5096612;28;20042;-62
2022/09/19 11:28:52;;;;;;;;;;;;;;;;;;5094999;28;20438;-61
2022/09/19 11:31:17;;;;;;;;;;;;;;;;;;5092614;28;20400;-62
2022/09/19 11:33:45;;;;;;;;;;;;;;;;;;5095370;28;20674;-61
2022/09/19 11:36:28;;;;;;;;;;;;;;;;;;5090693;28;20350;-61
2022/09/19 11:38:54;;;;;;;;;;;;;;;;;;5089125;28;20686;-62
2022/09/19 11:41:21;;;;;;;;;;;;;;;;;;5091892;28;20607;-61
2022/09/19 11:43:46;;;;;;;;;;;;;;;;;;5096422;28;19918;-62
2022/09/19 11:46:11;;;;;;;;;;;;;;;;;;5091283;28;19919;-61
2022/09/19 11:48:36;;;;;;;;;;;;;;;;;;5096798;27;20467;-62
2022/09/19 11:51:02;;;;;;;;;;;;;;;;;;5098759;27;20584;-62
2022/09/19 11:53:31;;;;;;;;;;;;;;;;;;5093067;28;19923;-62
2022/09/19 11:56:05;;;;;;;;;;;;;;;;;;5096366;28;19916;-62
2022/09/19 11:58:31;;;;;;;;;;;;;;;;;;5104772;27;19923;-62
2022/09/19 12:01:00;;;;;;;;;;;;;;;;;;5092355;28;20267;-62
2022/09/19 12:03:25;;;;;;;;;;;;;;;;;;5092214;28;20105;-61
2022/09/19 12:06:01;;;;;;;;;;;;;;;;;;5092491;28;19920;-63
2022/09/19 12:08:28;;;;;;;;;;;;;;;;;;5092249;28;20017;-65
2022/09/19 12:10:54;;;;;;;;;;;;;;;;;;5096482;28;19912;-62
2022/09/19 12:13:19;;;;;;;;;;;;;;;;;;5088672;28;20411;-62
2022/09/19 12:15:50;;;;;;;;;;;;;;;;;;5095766;28;19963;-61
2022/09/19 12:18:16;;;;;;;;;;;;;;;;;;5091864;28;19974;-60
2022/09/19 12:20:43;;;;;;;;;;;;;;;;;;5095685;28;19920;-63
2022/09/19 12:25:57;;;;;;;;;;;;;;;;;;5098422;28;19927;-61
2022/09/19 12:28:23;;;;;;;;;;;;;;;;;;5093381;28;19915;-62
2022/09/19 12:30:49;;;;;;;;;;;;;;;;;;5091669;28;19947;-62
2022/09/19 12:33:14;;;;;;;;;;;;;;;;;;5091403;28;20059;-62
2022/09/19 12:35:39;;;;;;;;;;;;;;;;;;5092538;28;19919;-61
2022/09/19 12:38:06;;;;;;;;;;;;;;;;;;5096736;28;20035;-61
2022/09/19 12:40:31;;;;;;;;;;;;;;;;;;5086031;28;19920;-62
2022/09/19 12:42:57;;;;;;;;;;;;;;;;;;5069070;28;19923;-64
2022/09/19 12:45:23;;;;;;;;;;;;;;;;;;5068148;28;20018;-62
2022/09/19 12:47:50;;;;;;;;;;;;;;;;;;5074231;28;19944;-62
2022/09/19 12:50:21;;;;;;;;;;;;;;;;;;5067244;28;20431;-62
2022/09/19 12:52:47;;;;;;;;;;;;;;;;;;5071512;28;19924;-62
2022/09/19 12:55:13;;;;;;;;;;;;;;;;;;5076716;28;19912;-63
2022/09/19 12:57:38;;;;;;;;;;;;;;;;;;5071945;28;19920;-62
2022/09/19 13:00:04;;;;;;;;;;;;;;;;;;5074372;28;19920;-62
2022/09/19 13:02:29;;;;;;;;;;;;;;;;;;5061468;28;19923;-62
2022/09/19 13:04:57;;;;;;;;;;;;;;;;;;5075545;28;20018;-62
2022/09/19 13:07:30;;;;;;;;;;;;;;;;;;5075156;28;20392;-62
2022/09/19 13:09:55;;;;;;;;;;;;;;;;;;5076049;28;20002;-62
2022/09/19 13:12:20;;;;;;;;;;;;;;;;;;5071604;28;19935;-61
2022/09/19 13:14:45;;;;;;;;;;;;;;;;;;5072721;28;19917;-63
2022/09/19 13:25:22;;;;;;;;;;;;;;;;;;5072583;28;19924;-62
2022/09/19 13:27:48;;;;;;;;;;;;;;;;;;5076518;28;19924;-62
2022/09/19 13:30:14;;;;;;;;;;;;;;;;;;5073463;28;19970;-62
2022/09/19 13:32:39;;;;;;;;;;;;;;;;;;5070366;28;19927;-62
2022/09/19 13:35:05;;;;;;;;;;;;;;;;;;5074383;28;19913;-62
2022/09/19 13:37:34;;;;;;;;;;;;;;;;;;5076435;28;19920;-62
2022/09/19 13:40:03;;;;;;;;;;;;;;;;;;5074927;28;19915;-63
2022/09/19 13:42:29;;;;;;;;;;;;;;;;;;5069246;28;20297;-62
2022/09/19 13:44:57;;;;;;;;;;;;;;;;;;5073987;28;20365;-62
2022/09/19 13:47:22;;;;;;;;;;;;;;;;;;5071728;28;19923;-63
2022/09/19 13:49:48;;;;;;;;;;;;;;;;;;5077219;28;19950;-62
2022/09/19 13:52:14;;;;;;;;;;;;;;;;;;5074020;28;19913;-62
2022/09/19 13:54:44;;;;;;;;;;;;;;;;;;5076030;28;19931;-62
2022/09/19 13:57:09;;;;;;;;;;;;;;;;;;5073790;28;19920;-63
2022/09/19 13:59:35;;;;;;;;;;;;;;;;;;5071881;28;19923;-61
2022/09/19 14:02:00;;;;;;;;;;;;;;;;;;5072360;28;20330;-62
2022/09/19 14:07:09;;;;;;;;;;;;;;;;;;5073616;28;19970;-62
2022/09/19 14:09:35;;;;;;;;;;;;;;;;;;5072718;28;19951;-61
2022/09/19 14:12:00;;;;;;;;;;;;;;;;;;5078986;28;19958;-63
2022/09/19 14:14:25;;;;;;;;;;;;;;;;;;5072227;28;19917;-62
2022/09/19 14:16:50;;;;;;;;;;;;;;;;;;5073333;28;19920;-62
2022/09/19 14:19:15;;;;;;;;;;;;;;;;;;5071875;28;19967;-62
2022/09/19 14:21:44;;;;;;;;;;;;;;;;;;5073400;28;20368;-62
2022/09/19 14:24:09;;;;;;;;;;;;;;;;;;5069497;28;19964;-62
2022/09/19 14:26:34;;;;;;;;;;;;;;;;;;5070034;28;19924;-62
2022/09/19 14:29:00;;;;;;;;;;;;;;;;;;5073833;28;19980;-62
2022/09/19 14:31:25;;;;;;;;;;;;;;;;;;5070788;28;20291;-62
2022/09/19 14:33:53;;;;;;;;;;;;;;;;;;5073814;28;19932;-62
2022/09/19 14:36:18;;;;;;;;;;;;;;;;;;5071752;28;19916;-63
2022/09/19 14:38:43;;;;;;;;;;;;;;;;;;5071993;28;19916;-63
2022/09/19 14:41:09;;;;;;;;;;;;;;;;;;5074229;28;20031;-62
2022/09/19 14:43:34;;;;;;;;;;;;;;;;;;5069794;28;19923;-63
2022/09/19 14:46:01;;;;;;;;;;;;;;;;;;5071205;28;20011;-63
2022/09/19 14:48:33;;;;;;;;;;;;;;;;;;5072115;28;19920;-63
2022/09/19 14:50:59;;;;;;;;;;;;;;;;;;5073619;28;19913;-61
2022/09/19 14:53:24;;;;;;;;;;;;;;;;;;5072662;28;19924;-62
2022/09/19 14:55:49;;;;;;;;;;;;;;;;;;5070960;28;19924;-62
2022/09/19 14:58:14;;;;;;;;;;;;;;;;;;5067179;28;20529;-61
2022/09/19 15:00:40;;;;;;;;;;;;;;;;;;5072863;28;19920;-62
2022/09/19 15:03:05;;;;;;;;;;;;;;;;;;5078500;28;19966;-62
2022/09/19 15:05:32;;;;;;;;;;;;;;;;;;5071558;28;20022;-62
2022/09/19 15:07:57;;;;;;;;;;;;;;;;;;5070810;28;20413;-62
2022/09/19 15:10:22;;;;;;;;;;;;;;;;;;5072583;28;20324;-62
2022/09/19 15:12:48;;;;;;;;;;;;;;;;;;5054545;28;19916;-62
2022/09/19 15:15:13;;;;;;;;;;;;;;;;;;5074793;28;20061;-62
2022/09/19 15:17:38;;;;;;;;;;;;;;;;;;5068668;28;19916;-62
2022/09/19 15:20:03;;;;;;;;;;;;;;;;;;5072932;28;20036;-62
2022/09/19 15:22:30;;;;;;;;;;;;;;;;;;5070569;28;19912;-62
2022/09/19 15:24:56;;;;;;;;;;;;;;;;;;5070294;28;19920;-63
2022/09/19 15:27:21;;;;;;;;;;;;;;;;;;5068421;28;19920;-62
2022/09/19 15:29:48;;;;;;;;;;;;;;;;;;5067606;28;19920;-62
2022/09/19 15:32:14;;;;;;;;;;;;;;;;;;5069539;28;19926;-60
2022/09/19 15:34:40;;;;;;;;;;;;;;;;;;5070725;28;19929;-60
2022/09/19 15:37:05;;;;;;;;;;;;;;;;;;5072248;28;19920;-61
2022/09/19 15:39:31;;;;;;;;;;;;;;;;;;5068419;28;19916;-61
2022/09/19 15:41:56;;;;;;;;;;;;;;;;;;5070386;28;19969;-61
2022/09/19 15:44:21;;;;;;;;;;;;;;;;;;5068589;28;19916;-61
2022/09/19 15:46:47;;;;;;;;;;;;;;;;;;5068969;28;20474;-62
2022/09/19 15:49:12;;;;;;;;;;;;;;;;;;5068746;28;19927;-61
2022/09/19 15:51:37;;;;;;;;;;;;;;;;;;5073446;28;19917;-62
2022/09/19 15:54:02;;;;;;;;;;;;;;;;;;5071382;28;19959;-62
2022/09/19 15:56:27;;;;;;;;;;;;;;;;;;5072596;28;19923;-61
2022/09/19 15:58:53;;;;;;;;;;;;;;;;;;5068577;28;19977;-62
2022/09/19 16:01:21;;;;;;;;;;;;;;;;;;5070407;28;19913;-62
2022/09/19 16:03:46;;;;;;;;;;;;;;;;;;5067070;28;19960;-62
2022/09/19 16:08:57;;;;;;;;;;;;;;;;;;5071460;28;20010;-62
2022/09/19 16:09:01;;;;;;;;;;;;;;;;;;5068907;28;20353;-63
2022/09/19 16:11:26;;;;;;;;;;;;;;;;;;5068568;28;19993;-62
2022/09/19 16:13:51;;;;;;;;;;;;;;;;;;5072264;28;19935;-62
2022/09/19 16:16:16;;;;;;;;;;;;;;;;;;5070729;28;19943;-62
2022/09/19 16:18:41;;;;;;;;;;;;;;;;;;5071527;28;20029;-62
2022/09/19 16:21:07;;;;;;;;;;;;;;;;;;5069591;28;19916;-62
2022/09/19 16:23:32;;;;;;;;;;;;;;;;;;5069995;28;19912;-62
2022/09/19 16:25:58;;;;;;;;;;;;;;;;;;5065516;28;20046;-62
2022/09/19 16:28:23;;;;;;;;;;;;;;;;;;5071770;28;19923;-62
2022/09/19 16:30:49;;;;;;;;;;;;;;;;;;5071300;28;19916;-63
2022/09/19 16:33:14;;;;;;;;;;;;;;;;;;5073110;28;19963;-62
2022/09/19 16:35:39;;;;;;;;;;;;;;;;;;5071755;28;19954;-63
2022/09/19 16:38:04;;;;;;;;;;;;;;;;;;5070890;28;19916;-63
2022/09/19 16:40:30;;;;;;;;;;;;;;;;;;5071808;28;20014;-63
2022/09/19 16:42:55;;;;;;;;;;;;;;;;;;5070721;28;19925;-63
2022/09/19 16:45:21;;;;;;;;;;;;;;;;;;5068247;28;19916;-63
2022/09/19 16:47:46;;;;;;;;;;;;;;;;;;5070632;28;19966;-63
2022/09/19 16:50:11;;;;;;;;;;;;;;;;;;5073062;28;19939;-63
2022/09/19 16:52:37;;;;;;;;;;;;;;;;;;5072392;28;20259;-63
2022/09/19 16:55:03;;;;;;;;;;;;;;;;;;5074550;28;19966;-63
2022/09/19 16:57:29;;;;;;;;;;;;;;;;;;5072681;28;20010;-63
2022/09/19 16:59:55;;;;;;;;;;;;;;;;;;5072876;28;19923;-63
2022/09/19 17:02:20;;;;;;;;;;;;;;;;;;5073569;28;19921;-63
2022/09/19 17:04:46;;;;;;;;;;;;;;;;;;5071990;28;19965;-62
2022/09/19 17:07:11;;;;;;;;;;;;;;;;;;5073968;28;20050;-64
2022/09/19 17:09:36;;;;;;;;;;;;;;;;;;5074344;28;19928;-62
2022/09/19 17:12:03;;;;;;;;;;;;;;;;;;5073272;28;20357;-63